createdAt,value
2022-09-07T00:00:48.773Z,0.23
2022-09-07T00:03:16.342Z,0.30
2022-09-07T00:05:45.021Z,0.33
2022-09-07T00:08:12.700Z,0.40
2022-09-07T00:10:40.649Z,0.40
2022-09-07T00:13:08.834Z,0.30
2022-09-07T00:15:40.353Z,0.20
2022-09-07T00:18:07.717Z,0.57
2022-09-07T00:20:34.996Z,0.83
2022-09-07T00:23:01.931Z,0.70
2022-09-07T00:25:31.894Z,0.60
2022-09-07T00:27:59.464Z,0.33
2022-09-07T00:30:26.561Z,0.30
2022-09-07T00:32:53.632Z,0.23
2022-09-07T00:35:20.724Z,0.40
2022-09-07T00:37:47.645Z,0.30
2022-09-07T00:40:14.809Z,0.37
2022-09-07T00:42:41.874Z,0.30
2022-09-07T00:45:20.006Z,0.30
2022-09-07T00:47:55.636Z,0.27
2022-09-07T00:50:32.167Z,0.30
2022-09-07T00:53:21.356Z,0.20
2022-09-07T00:55:51.178Z,0.20
2022-09-07T00:58:21.063Z,0.27
2022-09-07T01:00:49.384Z,0.20
2022-09-07T01:03:20.142Z,0.30
2022-09-07T01:05:53.904Z,0.40
2022-09-07T01:08:21.732Z,0.30
2022-09-07T01:10:48.919Z,0.30
2022-09-07T01:13:16.157Z,0.40
2022-09-07T01:15:48.908Z,0.20
2022-09-07T01:18:28.046Z,0.20
2022-09-07T01:21:12.821Z,0.30
2022-09-07T01:23:49.026Z,0.30
2022-09-07T01:26:34.029Z,0.30
2022-09-07T01:29:22.379Z,0.30
2022-09-07T01:32:14.762Z,0.20
2022-09-07T01:34:46.434Z,0.20
2022-09-07T01:38:04.537Z,0.50
2022-09-07T01:40:50.929Z,0.30
2022-09-07T01:43:46.790Z,0.30
2022-09-07T01:46:37.067Z,0.10
2022-09-07T01:49:12.098Z,0.40
2022-09-07T01:51:43.489Z,0.30
2022-09-07T01:54:33.475Z,0.20
2022-09-07T01:57:10.363Z,0.27
2022-09-07T01:59:57.378Z,0.20
2022-09-07T02:02:44.257Z,0.20
2022-09-07T02:05:28.189Z,0.30
2022-09-07T02:08:06.742Z,0.10
2022-09-07T02:10:40.680Z,0.10
2022-09-07T02:13:19.290Z,0.40
2022-09-07T02:16:03.542Z,0.20
2022-09-07T02:18:57.244Z,0.17
2022-09-07T02:22:07.104Z,0.20
2022-09-07T02:24:59.804Z,0.20
2022-09-07T02:27:54.277Z,0.17
2022-09-07T02:30:41.312Z,0.20
2022-09-07T02:33:28.583Z,0.10
2022-09-07T02:36:15.729Z,0.30
2022-09-07T02:39:02.816Z,0.20
2022-09-07T02:41:55.680Z,0.40
2022-09-07T02:44:47.721Z,0.30
2022-09-07T02:47:42.140Z,0.30
2022-09-07T02:51:04.831Z,0.20
2022-09-07T02:54:11.212Z,0.20
2022-09-07T02:57:28.052Z,0.37
2022-09-07T03:00:32.018Z,0.20
2022-09-07T03:03:49.276Z,0.30
2022-09-07T03:06:46.441Z,0.10
2022-09-07T03:09:39.186Z,0.10
2022-09-07T03:12:26.910Z,0.27
2022-09-07T03:15:13.887Z,0.10
2022-09-07T03:18:02.391Z,0.20
2022-09-07T03:20:49.408Z,0.20
2022-09-07T03:23:36.436Z,0.20
2022-09-07T03:26:24.225Z,0.17
2022-09-07T03:29:12.041Z,0.20
2022-09-07T03:31:59.184Z,0.20
2022-09-07T03:34:46.240Z,0.23
2022-09-07T03:37:33.210Z,0.30
2022-09-07T03:40:20.140Z,0.30
2022-09-07T03:43:10.340Z,0.23
2022-09-07T03:45:57.436Z,0.13
2022-09-07T03:48:44.621Z,0.20
2022-09-07T03:51:33.321Z,0.30
2022-09-07T03:54:20.344Z,0.10
2022-09-07T03:57:07.463Z,0.13
2022-09-07T03:59:54.963Z,0.17
2022-09-07T04:02:41.965Z,0.20
2022-09-07T04:05:29.445Z,0.20
2022-09-07T04:08:16.424Z,0.20
2022-09-07T04:11:03.805Z,0.20
2022-09-07T04:13:51.849Z,0.30
2022-09-07T04:16:44.403Z,0.20
2022-09-07T04:19:31.624Z,0.10
2022-09-07T04:22:18.512Z,0.10
2022-09-07T04:25:05.516Z,0.20
2022-09-07T04:27:52.381Z,0.10
2022-09-07T04:30:39.449Z,0.10
2022-09-07T04:33:26.592Z,0.10
2022-09-07T04:36:13.618Z,0.30
2022-09-07T04:39:01.297Z,0.20
2022-09-07T04:41:49.705Z,0.27
2022-09-07T04:44:36.749Z,0.10
2022-09-07T04:47:23.694Z,0.10
2022-09-07T04:50:11.894Z,0.10
2022-09-07T04:52:58.835Z,0.10
2022-09-07T04:55:45.917Z,0.50
2022-09-07T04:58:33.259Z,0.10
2022-09-07T05:01:24.966Z,0.10
2022-09-07T05:03:52.499Z,0.10
2022-09-07T05:06:20.796Z,0.27
2022-09-07T05:08:50.866Z,0.20
2022-09-07T05:11:19.588Z,0.20
2022-09-07T05:13:46.649Z,0.13
2022-09-07T05:16:20.341Z,0.10
2022-09-07T05:19:15.477Z,0.20
2022-09-07T05:22:02.746Z,0.20
2022-09-07T05:24:49.930Z,0.20
2022-09-07T05:27:37.068Z,0.20
2022-09-07T05:36:38.365Z,0.30
2022-09-07T05:39:27.003Z,0.20
2022-09-07T05:42:14.115Z,0.10
2022-09-07T05:45:01.303Z,0.20
2022-09-07T05:47:48.219Z,0.10
2022-09-07T05:50:35.277Z,0.30
2022-09-07T05:53:22.829Z,0.17
2022-09-07T05:56:12.452Z,0.20
2022-09-07T05:58:59.681Z,0.20
2022-09-07T06:01:46.841Z,0.20
2022-09-07T06:04:33.795Z,0.30
2022-09-07T06:07:22.497Z,0.20
2022-09-07T06:13:18.084Z,0.20
2022-09-07T06:16:05.184Z,0.27
2022-09-07T06:18:54.749Z,0.20
2022-09-07T06:21:43.428Z,0.20
2022-09-07T06:24:30.714Z,0.30
2022-09-07T06:27:17.638Z,0.20
2022-09-07T06:30:04.597Z,0.20
2022-09-07T06:32:51.554Z,0.30
2022-09-07T06:35:38.702Z,0.40
2022-09-07T06:38:31.248Z,0.10
2022-09-07T06:44:40.384Z,0.10
2022-09-07T06:47:27.491Z,0.30
2022-09-07T06:50:14.413Z,0.30
2022-09-07T06:56:08.425Z,0.30
2022-09-07T06:58:56.099Z,0.30
2022-09-07T07:01:44.913Z,0.20
2022-09-07T07:04:33.241Z,0.10
2022-09-07T07:07:23.479Z,0.23
2022-09-07T07:10:10.641Z,0.30
2022-09-07T07:12:58.355Z,0.30
2022-09-07T07:15:47.366Z,0.10
2022-09-07T07:18:34.681Z,0.20
2022-09-07T07:22:10.823Z,0.20
2022-09-07T07:24:55.270Z,0.30
2022-09-07T07:27:42.264Z,0.20
2022-09-07T07:30:29.663Z,0.33
2022-09-07T07:33:16.829Z,0.30
2022-09-07T07:36:03.929Z,0.40
2022-09-07T07:44:39.369Z,0.20
2022-09-07T07:47:26.360Z,0.20
2022-09-07T07:56:29.915Z,0.10
2022-09-07T07:59:16.801Z,0.10
2022-09-07T08:02:03.951Z,0.10
2022-09-07T08:04:52.828Z,0.20
2022-09-07T08:07:40.239Z,0.30
2022-09-07T08:10:27.441Z,0.10
2022-09-07T08:13:14.416Z,0.17
2022-09-07T08:16:01.922Z,0.30
2022-09-07T08:18:49.375Z,0.20
2022-09-07T08:21:36.846Z,0.20
2022-09-07T08:24:24.024Z,0.20
2022-09-07T08:27:11.721Z,0.20
2022-09-07T08:29:58.777Z,0.20
2022-09-07T08:32:46.746Z,0.20
2022-09-07T08:35:33.942Z,0.10
2022-09-07T08:38:21.174Z,0.30
2022-09-07T08:40:49.308Z,0.20
2022-09-07T08:43:57.060Z,0.10
2022-09-07T08:46:54.839Z,0.30
2022-09-07T08:49:42.009Z,0.30
2022-09-07T08:52:44.149Z,0.20
2022-09-07T08:55:29.357Z,0.20
2022-09-07T08:58:45.264Z,0.17
2022-09-07T09:01:31.915Z,0.20
2022-09-07T09:04:16.008Z,0.20
2022-09-07T09:06:58.773Z,0.30
2022-09-07T09:09:55.266Z,0.30
2022-09-07T09:12:25.153Z,0.10
2022-09-07T09:15:13.775Z,0.30
2022-09-07T09:17:59.673Z,0.10
2022-09-07T09:20:44.446Z,0.20
2022-09-07T09:23:17.400Z,0.20
2022-09-07T09:26:00.158Z,0.30
2022-09-07T09:28:30.259Z,0.23
2022-09-07T09:30:59.533Z,0.10
2022-09-07T09:33:29.115Z,0.20
2022-09-07T09:36:02.451Z,0.20
2022-09-07T09:38:34.486Z,0.10
2022-09-07T09:41:33.197Z,0.20
2022-09-07T09:44:20.146Z,0.30
2022-09-07T09:53:35.353Z,0.10
2022-09-07T09:56:04.874Z,0.10
2022-09-07T10:01:36.079Z,0.20
2022-09-07T10:04:22.645Z,0.10
2022-09-07T10:06:58.033Z,0.20
2022-09-07T10:09:30.172Z,0.53
2022-09-07T10:12:08.545Z,0.20
2022-09-07T10:14:47.392Z,0.30
2022-09-07T10:17:29.071Z,0.27
2022-09-07T10:20:22.950Z,0.10
2022-09-07T10:22:52.972Z,0.13
2022-09-07T10:25:53.542Z,0.40
2022-09-07T10:31:52.253Z,0.30
2022-09-07T10:34:49.173Z,0.30
2022-09-07T10:37:45.300Z,0.30
2022-09-07T10:40:55.089Z,0.20
2022-09-07T10:43:56.040Z,0.20
2022-09-07T10:46:57.008Z,0.20
2022-09-07T10:53:38.947Z,0.20
2022-09-07T10:56:19.439Z,0.20
2022-09-07T10:59:12.031Z,0.20
2022-09-07T11:02:30.918Z,0.20
2022-09-07T11:05:48.171Z,0.20
2022-09-07T11:12:07.069Z,0.30
2022-09-07T11:15:11.626Z,0.20
2022-09-07T11:18:17.067Z,0.20
2022-09-07T11:21:10.920Z,0.20
2022-09-07T11:24:22.181Z,0.10
2022-09-07T11:27:13.661Z,0.20
2022-09-07T11:30:16.614Z,0.20
2022-09-07T11:33:13.157Z,0.10
2022-09-07T11:36:16.911Z,0.30
2022-09-07T11:39:20.298Z,0.23
2022-09-07T11:42:44.460Z,0.70
2022-09-07T11:45:48.019Z,0.47
2022-09-07T11:49:15.106Z,0.20
2022-09-07T11:52:07.609Z,0.40
2022-09-07T11:54:54.888Z,0.33
2022-09-07T11:57:33.928Z,0.20
2022-09-07T12:00:19.349Z,0.20
2022-09-07T12:03:27.727Z,0.40
2022-09-07T12:06:00.617Z,0.20
2022-09-07T12:08:51.530Z,0.30
2022-09-07T12:11:31.122Z,0.20
2022-09-07T12:14:26.976Z,0.20
2022-09-07T12:16:59.925Z,0.40
2022-09-07T12:19:28.353Z,0.30
2022-09-07T12:21:56.666Z,0.30
2022-09-07T12:24:32.625Z,0.30
2022-09-07T12:27:00.701Z,0.20
2022-09-07T12:29:28.960Z,0.20
2022-09-07T12:32:07.309Z,0.30
2022-09-07T12:35:14.393Z,0.40
2022-09-07T12:38:02.372Z,0.37
2022-09-07T12:40:49.244Z,0.30
2022-09-07T12:43:16.372Z,0.30
2022-09-07T12:45:50.581Z,0.40
2022-09-07T12:48:17.721Z,0.40
2022-09-07T12:50:53.361Z,0.40
2022-09-07T12:53:37.555Z,0.40
2022-09-07T12:56:29.524Z,0.40
2022-09-07T12:59:17.340Z,0.33
2022-09-07T13:02:44.007Z,0.30
2022-09-07T13:05:31.098Z,0.40
2022-09-07T13:09:07.046Z,0.53
2022-09-07T13:11:57.142Z,0.40
2022-09-07T13:14:49.262Z,0.30
2022-09-07T13:18:02.055Z,0.30
2022-09-07T13:20:50.185Z,0.20
2022-09-07T13:23:45.759Z,0.30
2022-09-07T13:27:11.117Z,0.30
2022-09-07T13:30:01.210Z,0.50
2022-09-07T13:35:44.773Z,0.20
2022-09-07T13:38:15.458Z,0.20
2022-09-07T13:40:46.869Z,0.37
2022-09-07T13:43:21.914Z,0.30
2022-09-07T13:45:54.927Z,0.40
2022-09-07T13:48:51.985Z,0.80
2022-09-07T13:51:34.180Z,0.20
2022-09-07T13:54:38.209Z,0.10
2022-09-07T13:57:24.429Z,0.10
2022-09-07T13:59:52.417Z,0.20
2022-09-07T14:02:44.080Z,0.30
2022-09-07T14:05:36.991Z,0.13
2022-09-07T14:08:23.923Z,0.10
2022-09-07T14:11:10.800Z,0.20
2022-09-07T14:13:57.741Z,0.23
2022-09-07T14:16:44.896Z,0.40
2022-09-07T14:19:56.016Z,0.10
2022-09-07T14:22:53.214Z,0.10
2022-09-07T14:25:22.901Z,0.17
2022-09-07T14:27:50.070Z,0.23
2022-09-07T14:30:46.076Z,0.20
2022-09-07T14:33:35.446Z,0.27
2022-09-07T14:36:43.508Z,0.20
2022-09-07T14:39:32.634Z,0.10
2022-09-07T14:42:23.096Z,0.30
2022-09-07T14:45:10.520Z,0.20
2022-09-07T14:47:58.437Z,0.20
2022-09-07T14:51:19.482Z,0.23
2022-09-07T14:54:15.719Z,0.20
2022-09-07T14:57:02.759Z,0.20
2022-09-07T14:59:58.090Z,0.20
2022-09-07T15:02:52.630Z,0.40
2022-09-07T15:05:47.769Z,0.20
2022-09-07T15:08:59.688Z,0.20
2022-09-07T15:11:49.194Z,0.30
2022-09-07T15:14:40.490Z,0.30
2022-09-07T15:17:50.818Z,0.20
2022-09-07T15:20:59.061Z,0.40
2022-09-07T15:23:26.026Z,0.20
2022-09-07T15:25:54.097Z,0.30
2022-09-07T15:34:16.010Z,0.20
2022-09-07T15:36:48.731Z,0.30
2022-09-07T15:39:28.118Z,0.20
2022-09-07T15:41:55.507Z,0.30
2022-09-07T15:44:26.093Z,0.10
2022-09-07T15:49:49.173Z,0.50
2022-09-07T15:52:18.031Z,0.30
2022-09-07T15:54:45.047Z,0.20
2022-09-07T15:59:59.120Z,0.70
2022-09-07T16:05:13.857Z,0.50
2022-09-07T16:10:31.058Z,0.93
2022-09-07T16:13:03.115Z,0.37
2022-09-07T16:15:31.877Z,0.27
2022-09-07T16:17:58.757Z,0.20
2022-09-07T16:20:25.728Z,0.20
2022-09-07T16:25:43.426Z,0.20
2022-09-07T16:28:10.924Z,0.20
2022-09-07T16:30:41.131Z,0.20
2022-09-07T16:33:08.400Z,0.20
2022-09-07T16:35:35.448Z,0.20
2022-09-07T16:40:51.061Z,0.50
2022-09-07T16:43:18.151Z,0.30
2022-09-07T16:48:34.610Z,0.50
2022-09-07T16:51:05.410Z,0.43
2022-09-07T16:53:35.640Z,0.30
2022-09-07T16:56:04.275Z,0.20
2022-09-07T16:58:37.457Z,0.27
2022-09-07T17:01:25.711Z,0.40
2022-09-07T17:04:13.434Z,0.40
2022-09-07T17:07:00.786Z,0.20
2022-09-07T17:09:28.761Z,0.23
2022-09-07T17:11:55.651Z,0.47
2022-09-07T17:14:22.648Z,0.40
2022-09-07T17:16:49.803Z,0.40
2022-09-07T17:19:32.615Z,0.50
2022-09-07T17:22:19.757Z,0.40
2022-09-07T17:25:06.725Z,0.50
2022-09-07T17:27:33.757Z,0.57
2022-09-07T17:30:00.668Z,0.60
2022-09-07T17:32:30.043Z,0.70
2022-09-07T17:34:57.297Z,0.83
2022-09-07T17:37:24.226Z,1.10
2022-09-07T17:39:51.841Z,0.70
2022-09-07T17:42:19.160Z,0.60
2022-09-07T17:44:46.000Z,0.80
2022-09-07T17:47:13.272Z,0.53
2022-09-07T17:49:40.196Z,0.60
2022-09-07T17:52:07.269Z,0.50
2022-09-07T17:54:34.189Z,0.47
2022-09-07T17:57:01.041Z,0.70
2022-09-07T18:02:15.056Z,0.70
2022-09-07T18:04:42.715Z,0.90
2022-09-07T18:07:09.736Z,0.67
2022-09-07T18:09:37.003Z,1.03
2022-09-07T18:12:04.191Z,0.90
2022-09-07T18:14:31.358Z,0.90
2022-09-07T18:16:58.235Z,0.90
2022-09-07T18:19:25.900Z,0.80
2022-09-07T18:21:53.093Z,1.60
2022-09-07T18:24:23.552Z,1.00
2022-09-07T18:26:52.788Z,0.90
2022-09-07T18:29:29.858Z,0.70
2022-09-07T18:31:58.613Z,0.80
2022-09-07T18:34:26.148Z,0.70
2022-09-07T18:36:53.821Z,0.80
2022-09-07T18:39:21.998Z,1.03
2022-09-07T18:41:49.237Z,0.70
2022-09-07T18:47:03.577Z,0.90
2022-09-07T18:49:30.545Z,1.10
2022-09-07T18:54:44.414Z,0.70
2022-09-07T18:57:11.305Z,1.00
2022-09-07T18:59:38.202Z,0.90
2022-09-07T19:02:08.122Z,0.97
2022-09-07T19:07:28.825Z,0.73
2022-09-07T19:09:56.955Z,0.90
2022-09-07T19:12:24.376Z,0.90
2022-09-07T19:14:51.686Z,0.80
2022-09-07T19:17:19.564Z,0.83
2022-09-07T19:19:46.783Z,1.00
2022-09-07T19:22:13.793Z,0.60
2022-09-07T19:24:40.703Z,0.60
2022-09-07T19:27:27.647Z,0.60
2022-09-07T19:29:56.156Z,0.70
2022-09-07T19:32:23.101Z,0.90
2022-09-07T19:34:54.572Z,0.97
2022-09-07T19:37:25.761Z,0.90
2022-09-07T19:39:56.102Z,1.23
2022-09-07T19:42:24.009Z,1.30
2022-09-07T19:44:51.377Z,1.50
2022-09-07T19:47:18.759Z,1.27
2022-09-07T19:49:45.776Z,1.30
2022-09-07T19:52:12.644Z,1.60
2022-09-07T19:54:40.684Z,1.53
2022-09-07T19:57:27.587Z,2.00
2022-09-07T20:00:14.856Z,1.27
2022-09-07T20:03:01.721Z,1.20
2022-09-07T20:05:48.788Z,0.87
2022-09-07T20:08:35.600Z,0.70
2022-09-07T20:11:24.545Z,0.80
2022-09-07T20:14:11.491Z,0.60
2022-09-07T20:16:58.633Z,0.70
2022-09-07T20:19:45.576Z,0.47
2022-09-07T20:22:32.726Z,0.60
2022-09-07T20:25:21.088Z,0.50
2022-09-07T20:28:08.422Z,0.50
2022-09-07T20:30:55.276Z,0.80
2022-09-07T20:33:43.111Z,0.90
2022-09-07T20:36:33.348Z,0.80
2022-09-07T20:39:20.647Z,1.10
2022-09-07T20:42:07.782Z,0.80
2022-09-07T20:44:55.010Z,1.00
2022-09-07T20:47:41.839Z,0.50
2022-09-07T20:50:29.380Z,0.80
2022-09-07T20:53:16.203Z,0.80
2022-09-07T20:55:43.247Z,0.47
2022-09-07T20:58:10.141Z,0.73
2022-09-07T21:00:37.505Z,0.87
2022-09-07T21:03:04.608Z,0.60
2022-09-07T21:05:35.433Z,0.60
2022-09-07T21:08:02.637Z,0.70
2022-09-07T21:10:29.635Z,0.60
2022-09-07T21:12:56.507Z,0.60
2022-09-07T21:15:23.516Z,0.90
2022-09-07T21:17:50.450Z,0.77
2022-09-07T21:20:17.297Z,0.83
2022-09-07T21:22:44.150Z,0.77
2022-09-07T21:25:11.188Z,0.77
2022-09-07T21:27:38.834Z,0.60
2022-09-07T21:30:06.592Z,0.47
2022-09-07T21:32:33.571Z,0.40
2022-09-07T21:35:00.526Z,0.73
2022-09-07T21:37:27.446Z,0.40
2022-09-07T21:39:55.082Z,0.50
2022-09-07T21:42:42.005Z,0.70
2022-09-07T21:45:29.181Z,0.37
2022-09-07T21:48:15.978Z,0.37
2022-09-07T21:51:03.038Z,0.40
2022-09-07T21:53:50.020Z,0.83
2022-09-07T21:56:37.005Z,0.50
2022-09-07T21:59:23.824Z,0.43
2022-09-07T22:02:10.984Z,0.40
2022-09-07T22:04:57.898Z,0.60
2022-09-07T22:07:44.995Z,0.67
2022-09-07T22:10:31.910Z,0.57
2022-09-07T22:13:18.860Z,0.70
2022-09-07T22:16:07.984Z,0.57
2022-09-07T22:18:56.142Z,0.60
2022-09-07T22:21:45.284Z,0.63
2022-09-07T22:24:32.724Z,0.47
2022-09-07T22:27:19.584Z,0.50
2022-09-07T22:30:06.637Z,0.50
2022-09-07T22:32:53.739Z,0.60
2022-09-07T22:35:41.285Z,0.70
2022-09-07T22:38:28.085Z,1.10
2022-09-07T22:41:15.148Z,0.60
2022-09-07T22:44:03.136Z,0.77
2022-09-07T22:46:54.382Z,0.70
2022-09-07T22:49:41.294Z,0.67
2022-09-07T22:52:28.517Z,0.80
2022-09-07T22:55:15.353Z,0.60
2022-09-07T22:58:02.457Z,0.50
2022-09-07T23:00:49.314Z,0.70
2022-09-07T23:03:37.964Z,0.50
2022-09-07T23:06:25.065Z,0.70
2022-09-07T23:09:13.695Z,0.70
2022-09-07T23:12:00.873Z,0.60
2022-09-07T23:14:47.766Z,0.60
2022-09-07T23:17:34.563Z,0.80
2022-09-07T23:20:21.705Z,0.63
2022-09-07T23:23:08.498Z,0.70
2022-09-07T23:26:00.239Z,0.83
2022-09-07T23:28:47.233Z,0.70
2022-09-07T23:31:34.309Z,0.80
2022-09-07T23:34:22.077Z,0.80
2022-09-07T23:37:09.048Z,0.70
2022-09-07T23:39:56.152Z,0.80
2022-09-07T23:42:43.184Z,0.63
2022-09-07T23:45:30.465Z,0.80
2022-09-07T23:48:17.466Z,0.60
2022-09-07T23:51:05.064Z,0.60
2022-09-07T23:53:52.129Z,0.90
2022-09-07T23:56:40.001Z,0.63
2022-09-07T23:59:27.038Z,0.63
